Oxnard, CA (93030)

4:49 AM PDT on August 20, 2017 (GMT -0700)
educational | | Change Station
Active Advisory: Beach Hazard Statement

Elev 72 ft 34.22 °N, 119.17 °W | Updated 10 seconds ago

Overcast
Overcast
65.7 °F
Feels Like 65.7 °F
N
0.0
Wind Variable Wind from East
Gusts 0.0 mph

Today
High -- | Low -- °F
--% Chance of Precip.
Yesterday
High -- | Low -- °F
Precip. -- in
Pressure 29.91 in
Visibility 10.0 miles
Clouds Overcast 1400 ft
Dew Point 58 °F
Humidity 76%
Rainfall 0.00 in
Snow Depth Not available.
6:21 AM 7:37 PM
Waning Crescent, 2% visible
METAR KOXR 201051Z AUTO 22003KT 10SM OVC014 17/14 A2991 RMK AO2 SLP129 T01720144 $
Pressure 29.91 in
Visibility 10.0 miles
Clouds Overcast 1400 ft
Dew Point 58 °F
Humidity 76%
Rainfall 0.00 in
Snow Depth Not available.
6:21 AM 7:37 PM
Waning Crescent, 2% visible
METAR KOXR 201051Z AUTO 22003KT 10SM OVC014 17/14 A2991 RMK AO2 SLP129 T01720144 $

Get Your Daily Forecast Email!

Thanks for signing up!

Be on the lookout for a verification email in your inbox.

You'll start receiving severe weather alerts in your inbox..

×

10-Day Weather Forecast

Almanac

Astronomy

Aug. 20, 2017 Rise Set
Actual Time
Civil Twilight
Nautical Twilight
Astronomical Twilight
Moon
Length of Visible Light
Length of Day
Tomorrow will be .
, % of the Moon is Illuminated

Today's Extremes

State Highs State Lows

Community

WunderPhotos

Category 6

Welcome to Category 6. This is the collective home for Weather Underground's featured writeups by Dr. Jeff Masters (right), Bob Henson (left), Chris Burt, and other regular contributors.

Nearby

Air Quality

  Air Quality AQ Index Pollutant
Not available.

Snow Depth

Station Depth Elevation

Earthquake Activity

City Distance Mag. Time & Date
Minimum magnitude displayed is 2.5.

Coastal Water Temperatures

Place Temperature

Stations

Nearby Weather Stations

Station Location Temp. Windchill Dew Point Humidity Wind Precip. Elev Updated Type
                   

Watches & Warnings

Beach Hazard Statement
Issued: 7:53 PM PDT Aug. 19, 2017 – National Weather Service

... Beach hazards statement remains in effect through Sunday
evening...

* hazards... minor tidal overflow and beach erosion are possible
due to a large high tide around 7 feet. High tides are
expected between 7 and 8 PM.

* Impacts... minor tidal overflow and beach erosion may bring
pooling of sea water to beach and Harbor areas that is
uncommon with normal tidal ranges.

Precautionary/preparedness actions...

A beach hazards statement is issued when threats to beach and
surf zone safety are expected or occurring. Caution should be
used when in or near the water.